Paul R Tregurtha — WYR4481 — position and weather

sailwx.info

Track history (hours):
 
Tides and Currents Weather Stations Pressure Air Temp Water Temp Dewpoint Dewpoint Depression Visibility Wind Speed Wind Dir Waves Ship Positions

Paul R Tregurtha

Owner: THE INTERLAKE STEAMSHIP COMPANY, Middleburg Heights, OH. More information available from US FCC via Universal Licensing System and Coast Guard Vessel Documentation Center.

Last reported at 2014-Dec-18 07:00 UTC. Time now 2014-Dec-18 10:26 UTC.
Position N 46°42' W 084°48'.

Length 308 m; draft 6.4 m.

Type: Cargo ship. MMSI: 366904940.

Wind from 360 at 14 knots

Barometer 1022.0 mb
Air temperature -5.8 ° C
Water temperature 3.6 ° C

Date/timePositionNaut miles runAvg speedWind from/ knotsBaromVisibWave heightAir tempDewpointWater temp
2014-Dec-18 07:00N 46°42' W 084°48'1514.6 360 / 141022.0 -5.8 3.6
2014-Dec-18 06:00N 46°30' W 084°36'8 8.3 1020.7 -5.1 3.3
2014-Dec-18 05:00N 46°30' W 084°24'0 0.0 340 / 111021.3 -6.5 2.8
2014-Dec-18 04:00N 46°30' W 084°24'10 5.1 340 / 81021.0 -6.1 2.9
2014-Dec-18 02:00N 46°24' W 084°12'7 7.3 340 / 111019.1 -6.0 2.7
2014-Dec-18 01:00N 46°18' W 084°06'6 6.0 330 / 91018.4 -5.6 2.6
2014-Dec-18 00:00N 46°12' W 084°06'915.2 350 / 161016.7 -4.6 2.6
2014-Dec-17 23:24N 46°04' W 084°00'614.2
2014-Dec-17 23:00N 46°00' W 083°54'1312.7 340 / 121015.7 -4.2 1.2
2014-Dec-17 22:00N 45°48' W 083°48'2211.0 330 / 111014.7 -3.8 4.4
2014-Dec-17 20:00N 45°30' W 083°30'1514.7 320 / 141013.3 -2.7 4.6
2014-Dec-17 19:00N 45°18' W 083°18'1514.7 300 / 161012.7 -1.6 4.5
2014-Dec-17 18:00N 45°06' W 083°06'1212.0 300 / 201012.7 -1.0 3.6
2014-Dec-17 17:00N 44°54' W 083°06'1312.7 290 / 201013.0 -0.2 4.0
2014-Dec-17 16:00N 44°42' W 083°12'1212.0 290 / 181013.3 0.1 3.1
2014-Dec-17 15:00N 44°30' W 083°12'1514.7 270 / 211013.3 0.9 3.5
2014-Dec-17 14:00N 44°18' W 083°00'1010.5 250 / 221012.3 5.4 1.0 1.0 5.0
2014-Dec-17 13:00N 44°12' W 082°48'7 7.4 260 / 261011.3 1.3 5.3
2014-Dec-17 12:00N 44°06' W 082°42'1312.8 260 / 241011.0 0.7 5.0
2014-Dec-17 11:00N 43°54' W 082°36'1312.8 240 / 261010.6 0.6 4.3
2014-Dec-17 10:00N 43°42' W 082°30'1212.0 260 / 281010.3 0.9 4.7
2014-Dec-17 09:00N 43°30' W 082°30'1312.8 260 / 261010.6 1.4 3.4
2014-Dec-17 08:00N 43°18' W 082°24'1212.0 260 / 261011.0 2.3 3.9
2014-Dec-17 07:00N 43°06' W 082°24'19 9.3 260 / 221010.6 3.2 4.4
2014-Dec-17 05:00N 42°48' W 082°30'1212.0 250 / 121010.3 5.7 4.2
2014-Dec-17 04:00N 42°36' W 082°30'1110.7 290 / 121010.3 5.7 4.2
2014-Dec-17 03:00N 42°30' W 082°42'7 7.5 240 / 111010.1 6.5 4.1
2014-Dec-17 02:00N 42°24' W 082°48'1110.7 260 / 141010.1 7.2 3.2
2014-Dec-17 01:00N 42°18' W 083°00'7 7.5 240 / 111009.4 7.8 3.0
2014-Dec-17 00:00N 42°12' W 083°06'18 9.0 260 / 141009.1 7.3 2.8
2014-Dec-16 22:00N 41°54' W 083°06'9 8.9 240 / 141008.3 5.8 3.0
2014-Dec-16 21:00N 41°54' W 083°18'0 0.0 230 / 141007.6 5.7 3.0
2014-Dec-16 19:00N 41°54' W 083°18'0 0.0 240 / 21005.6 8.5 4.7
2014-Dec-16 18:00N 41°54' W 083°18'0 0.0 190 / 21005.6 8.3 4.6
2014-Dec-16 17:00N 41°54' W 083°18'65 3.8 180 / 21005.6 8.8 4.6
2014-Dec-16 00:00N 42°48' W 082°30'0 0.0 140 / 61014.0 6.1 8.5
2014-Dec-15 23:00N 42°48' W 082°30'0 0.0 170 / 61014.3 7.8 7.9
2014-Dec-15 22:00N 42°48' W 082°30'0 0.0 300 / 31014.7 8.3 8.0
2014-Dec-15 21:00N 42°48' W 082°30'0 0.0 240 / 91015.0 8.8 7.8
2014-Dec-15 20:00N 42°48' W 082°30'0 0.0 250 / 91015.0 9.1 7.6
2014-Dec-15 19:00N 42°48' W 082°30'0 0.0 240 / 101015.4 8.8 7.9
2014-Dec-15 18:00N 42°48' W 082°30'0 0.0 250 / 111016.4 8.1 7.5
2014-Dec-15 17:00N 42°48' W 082°30'0 0.0 200 / 71016.7 7.4 6.5
2014-Dec-15 16:00N 42°48' W 082°30'1312.8 140 / 51017.4 6.2 3.7
2014-Dec-15 15:00N 43°00' W 082°24'6 6.0 160 / 91017.4 6.7 3.8
2014-Dec-15 14:00N 43°06' W 082°24'1212.0 120 / 61017.4 5.3 3.4
2014-Dec-15 13:00N 43°18' W 082°24'1212.0 160 / 61017.1 4.6 3.9
2014-Dec-15 12:00N 43°30' W 082°24'1212.0 170 / 111016.7 4.3 4.0
2014-Dec-15 11:00N 43°42' W 082°24'1312.8 150 / 101016.7 4.6 5.0
2014-Dec-15 10:00N 43°54' W 082°30'1312.8 170 / 111016.4 4.7 5.3
2014-Dec-15 09:00N 44°06' W 082°36'1212.0 150 / 141016.7 4.7 5.4
2014-Dec-15 08:00N 44°18' W 082°36'1312.7 130 / 121017.1 4.8 5.3
2014-Dec-15 07:00N 44°30' W 082°42'3812.7 140 / 91017.1 4.7 5.1
2014-Dec-15 04:00N 45°06' W 083°00'1514.7 120 / 51017.7 4.0 4.5
2014-Dec-15 03:00N 45°18' W 083°12'1514.7 110 / 41017.7 3.9 4.7
2014-Dec-15 02:00N 45°30' W 083°24'7 7.3 040 / 31017.7 4.0 4.9
2014-Dec-15 01:00N 45°36' W 083°30'1514.6 130 / 41017.4 3.7 4.5
2014-Dec-15 00:00N 45°48' W 083°42'1115.0 120 / 21017.4 3.5 4.0
2014-Dec-14 23:15N 45°56' W 083°53'415.8
2014-Dec-14 23:00N 46°00' W 083°54'7 7.3 220 / 31017.1 2.6 0.9
2014-Dec-14 22:00N 46°06' W 084°00'811.8 140 / 31016.7 2.6 1.6
2014-Dec-14 21:16N 46°12' W 084°08'3 9.1
2014-Dec-14 21:00N 46°12' W 084°12'6 6.0 170 / 21016.4 3.2 2.5
2014-Dec-14 20:00N 46°18' W 084°12'6 6.0 210 / 21016.0 3.6 2.7
2014-Dec-14 19:00N 46°24' W 084°12'7 7.3 080 / 11016.0 3.0 2.7
2014-Dec-14 18:00N 46°30' W 084°18'4 4.1 050 / 21016.0 2.9 2.8
2014-Dec-14 17:00N 46°30' W 084°24'0 0.0 190 / 11016.6 2.8 2.8
2014-Dec-14 16:00N 46°30' W 084°24'4 4.1 220 / 61016.9 3.2 2.8
2014-Dec-14 15:00N 46°30' W 084°30'1010.2 240 / 81016.9 2.1 3.2
2014-Dec-14 14:00N 46°36' W 084°42'910.8 260 / 101015.9 2.8 3.7
2014-Dec-14 13:10N 46°43' W 084°51'213.3
2014-Dec-14 13:00N 46°42' W 084°54'1514.5 240 / 91015.2 1.9 2.9
2014-Dec-14 12:00N 46°54' W 085°06'812.2 240 / 51015.2 2.8 3.6
2014-Dec-14 11:20N 46°56' W 085°17'617.6
2014-Dec-14 11:00N 47°00' W 085°24'8 8.2 270 / 81015.2 3.8 4.5
2014-Dec-14 10:00N 47°00' W 085°36'12612.6 270 / 101014.9 3.8 4.7
2014-Dec-14 00:00N 47°30' W 088°36'149 6.2 250 / 211013.9 4.7 4.6
2014-Dec-13 00:00N 46°48' W 092°06'0 0.0 210 / 81019.0 0.9 0.5
2014-Dec-12 22:00N 46°48' W 092°06'8 8.2 220 / 71020.0 0.9 1.1
2014-Dec-12 21:00N 46°48' W 091°54'1413.7 210 / 141019.3 1.2 3.3
2014-Dec-12 20:00N 46°54' W 091°36'1413.7 210 / 141019.3 1.0 4.0
2014-Dec-12 19:00N 47°00' W 091°18'1212.3 210 / 141019.6 0.8 3.7
2014-Dec-12 18:00N 47°00' W 091°00'1413.7 220 / 141019.6 0.3 3.6
2014-Dec-12 17:00N 47°06' W 090°42'10812.1 230 / 141020.3 0.1 3.1
2014-Dec-12 08:00N 47°30' W 088°06'1212.2 260 / 221019.0 0.8 4.5
2014-Dec-12 07:00N 47°30' W 087°48'12612.6 280 / 201019.6 1.2 3.4
2014-Dec-11 21:00N 46°48' W 084°54'2412.2 290 / 191017.6 1.4 3.3
2014-Dec-11 19:00N 46°30' W 084°30'3 5.0 340 / 181016.9 1.2 2.7
2014-Dec-11 18:29N 46°29' W 084°27'2 4.1
2014-Dec-11 18:00N 46°30' W 084°24'4 4.1 300 / 151017.6 0.5 1.9
2014-Dec-11 17:00N 46°30' W 084°18'0 0.0 300 / 111018.1 -0.6 2.2
2014-Dec-11 16:00N 46°30' W 084°18'7 7.3 310 / 161017.4 -1.4 2.1
2014-Dec-11 15:00N 46°24' W 084°12'4 6.6 310 / 51018.8 -5.9 1.8
2014-Dec-11 14:24N 46°20' W 084°11'9 6.3
2014-Dec-11 13:00N 46°12' W 084°06'814.0 340 / 41019.4 -6.7 0.9
2014-Dec-11 12:27N 46°05' W 084°01'715.6
2014-Dec-11 12:00N 46°00' W 083°54'2 4.8 330 / 101018.8 -6.1 0.8
2014-Dec-11 11:33N 45°58' W 083°53'5 9.7
2014-Dec-11 11:00N 45°54' W 083°48'1013.9 310 / 141018.4 -4.5 3.9
2014-Dec-11 10:16N 45°45' W 083°43'811.1
2014-Dec-11 09:33N 45°38' W 083°37'5 9.0
2014-Dec-11 09:00N 45°36' W 083°30'716.1 350 / 161018.4 -2.3 4.6
2014-Dec-11 08:33N 45°29' W 083°28'13 8.4
2014-Dec-11 07:00N 45°18' W 083°18'1514.7 340 / 191017.4 -1.8 4.2
2014-Dec-11 06:00N 45°06' W 083°06'6 6.0 330 / 231017.4 -1.6 3.8
2014-Dec-11 05:00N 45°00' W 083°06'25 8.5 340 / 231018.1 -1.5 4.5
2014-Dec-11 02:00N 44°36' W 082°54'2010.0 350 / 231019.4 -0.1 5.2
2014-Dec-11 00:00N 44°18' W 082°42'6 6.0 340 / 241020.4 -0.8 5.6
2014-Dec-10 23:00N 44°12' W 082°42'1312.8 340 / 221020.410.8 2.0-0.6 5.5
2014-Dec-10 22:00N 44°00' W 082°36'7 7.4 340 / 201021.1 -1.1 4.5
2014-Dec-10 21:00N 43°54' W 082°30'1212.0 1020.8 -1.3 4.1
2014-Dec-10 20:00N 43°42' W 082°30'48 9.6 340 / 211020.8 -1.5 3.8
2014-Dec-10 15:00N 42°54' W 082°30'6 6.0 020 / 131024.2 -2.2 4.2
2014-Dec-10 14:00N 42°48' W 082°30'1212.0 320 / 151023.8 -2.2 4.1
2014-Dec-10 13:00N 42°36' W 082°30'29 9.5 340 / 161023.8 -1.9 4.0
2014-Dec-10 10:00N 42°18' W 083°00'7 7.5 320 / 191024.0 -0.9 3.2
2014-Dec-10 09:00N 42°12' W 083°06'6 6.0 330 / 141023.6 -0.1 3.3
2014-Dec-10 08:00N 42°06' W 083°06'13 6.4 350 / 121023.5 0.1 3.0
2014-Dec-10 06:00N 41°54' W 083°12'4 1.5 010 / 161023.5 1.1 2.8
2014-Dec-10 03:00N 41°54' W 083°18'0 0.0 030 / 71023.5 2.4 2.3
2014-Dec-10 02:00N 41°54' W 083°18'0 0.0 040 / 61023.2 2.5 2.4
2014-Dec-10 00:00N 41°54' W 083°18'0 0.0 020 / 71022.9 2.8 2.5
2014-Dec-09 22:00N 41°54' W 083°18'0 0.0 050 / 61022.5 3.4 2.6
2014-Dec-09 21:00N 41°54' W 083°18'0 0.0 020 / 71022.2 3.6 2.7
2014-Dec-09 20:00N 41°54' W 083°18'0 0.0 040 / 91021.2 3.8 2.6
2014-Dec-09 18:00N 41°54' W 083°18'4 4.5 340 / 101020.5 3.2 1.8
2014-Dec-09 17:00N 41°54' W 083°12'7 7.5 320 / 121020.5 2.8 2.2
2014-Dec-09 16:00N 42°00' W 083°06'1212.0 330 / 81021.2 3.2 3.1
2014-Dec-09 15:00N 42°12' W 083°06'6 6.0 350 / 81020.9 3.3 3.2
2014-Dec-09 14:00N 42°18' W 083°06'1110.7 360 / 101020.3 2.8 3.0
2014-Dec-09 13:00N 42°24' W 082°54'1110.7 340 / 91019.2 2.7 3.2
2014-Dec-09 12:00N 42°30' W 082°42'1110.7 350 / 111018.9 3.0 4.0
2014-Dec-09 11:00N 42°36' W 082°30'1212.0 190 / 31019.1 2.7 3.9
2014-Dec-09 10:00N 42°48' W 082°30'0 0.0 160 / 51018.8 2.9 5.3
2014-Dec-09 09:00N 42°48' W 082°30'0 0.0 240 / 41018.8 4.6 6.9
2014-Dec-09 07:00N 42°48' W 082°30'0 0.0 190 / 21018.8 4.0 6.9
2014-Dec-09 06:00N 42°48' W 082°30'0 0.0 230 / 61018.8 4.4 6.9
2014-Dec-09 05:00N 42°48' W 082°30'0 0.0 230 / 91018.8 4.2 7.2
2014-Dec-09 03:00N 42°48' W 082°30'0 0.0 250 / 41018.8 3.8 7.3
2014-Dec-09 02:00N 42°48' W 082°30'13 6.4 160 / 51018.8 3.9 4.0
2014-Dec-09 00:00N 43°00' W 082°24'1212.0 170 / 81018.4 4.1 3.8
2014-Dec-08 23:00N 43°12' W 082°24'6 6.0 150 / 151018.4 4.3 4.8
2014-Dec-08 22:00N 43°18' W 082°24'2412.0 150 / 141018.4 5.1 5.1
2014-Dec-08 20:00N 43°42' W 082°24'1312.8 170 / 201017.7 4.8 5.0
2014-Dec-08 19:00N 43°54' W 082°30'1212.0 170 / 201018.1 4.4 5.6
2014-Dec-08 18:00N 44°06' W 082°30'1312.7 160 / 221018.8 3.8 5.7
2014-Dec-08 17:00N 44°18' W 082°36'7 7.4 160 / 261019.1 3.4 5.6
2014-Dec-08 16:00N 44°24' W 082°42'5110.2 170 / 231020.1 3.4 5.6
2014-Dec-08 11:00N 45°12' W 083°06'1514.7 170 / 251022.5 2.5 5.2
2014-Dec-08 10:00N 45°24' W 083°18'1010.3 180 / 281022.5 1.9 4.8
2014-Dec-08 09:00N 45°30' W 083°30'1012.6 170 / 261023.8 1.2 4.8
2014-Dec-08 08:10N 45°39' W 083°36'1211.3
2014-Dec-08 07:08N 45°49' W 083°46'211.8
2014-Dec-08 07:00N 45°48' W 083°48'   150 / 231024.8 1.6 4.2
Track history (hours):
 
Tides and Currents Weather Stations Pressure Air Temp Water Temp Dewpoint Dewpoint Depression Visibility Wind Speed Wind Dir Waves Ship Positions

Paul R Tregurtha

Owner: THE INTERLAKE STEAMSHIP COMPANY, Middleburg Heights, OH. More information available from US FCC via Universal Licensing System and Coast Guard Vessel Documentation Center.

Last reported at 2014-Dec-18 07:00 UTC. Time now 2014-Dec-18 10:26 UTC.
Position N 46°42' W 084°48'.

Length 308 m; draft 6.4 m.

Type: Cargo ship. MMSI: 366904940.

Wind from 360 at 14 knots

Barometer 1022.0 mb
Air temperature -5.8 ° C
Water temperature 3.6 ° C

Date/timePositionNaut miles runAvg speedWind from/ knotsBaromVisibWave heightAir tempDewpointWater temp
2014-Dec-18 07:00N 46°42' W 084°48'1514.6 360 / 141022.0 -5.8 3.6
2014-Dec-18 06:00N 46°30' W 084°36'8 8.3 1020.7 -5.1 3.3
2014-Dec-18 05:00N 46°30' W 084°24'0 0.0 340 / 111021.3 -6.5 2.8
2014-Dec-18 04:00N 46°30' W 084°24'10 5.1 340 / 81021.0 -6.1 2.9
2014-Dec-18 02:00N 46°24' W 084°12'7 7.3 340 / 111019.1 -6.0 2.7
2014-Dec-18 01:00N 46°18' W 084°06'6 6.0 330 / 91018.4 -5.6 2.6
2014-Dec-18 00:00N 46°12' W 084°06'915.2 350 / 161016.7 -4.6 2.6
2014-Dec-17 23:24N 46°04' W 084°00'614.2
2014-Dec-17 23:00N 46°00' W 083°54'1312.7 340 / 121015.7 -4.2 1.2
2014-Dec-17 22:00N 45°48' W 083°48'2211.0 330 / 111014.7 -3.8 4.4
2014-Dec-17 20:00N 45°30' W 083°30'1514.7 320 / 141013.3 -2.7 4.6
2014-Dec-17 19:00N 45°18' W 083°18'1514.7 300 / 161012.7 -1.6 4.5
2014-Dec-17 18:00N 45°06' W 083°06'1212.0 300 / 201012.7 -1.0 3.6
2014-Dec-17 17:00N 44°54' W 083°06'1312.7 290 / 201013.0 -0.2 4.0
2014-Dec-17 16:00N 44°42' W 083°12'1212.0 290 / 181013.3 0.1 3.1
2014-Dec-17 15:00N 44°30' W 083°12'1514.7 270 / 211013.3 0.9 3.5
2014-Dec-17 14:00N 44°18' W 083°00'1010.5 250 / 221012.3 5.4 1.0 1.0 5.0
2014-Dec-17 13:00N 44°12' W 082°48'7 7.4 260 / 261011.3 1.3 5.3
2014-Dec-17 12:00N 44°06' W 082°42'1312.8 260 / 241011.0 0.7 5.0
2014-Dec-17 11:00N 43°54' W 082°36'1312.8 240 / 261010.6 0.6 4.3
2014-Dec-17 10:00N 43°42' W 082°30'1212.0 260 / 281010.3 0.9 4.7
2014-Dec-17 09:00N 43°30' W 082°30'1312.8 260 / 261010.6 1.4 3.4
2014-Dec-17 08:00N 43°18' W 082°24'1212.0 260 / 261011.0 2.3 3.9
2014-Dec-17 07:00N 43°06' W 082°24'19 9.3 260 / 221010.6 3.2 4.4
2014-Dec-17 05:00N 42°48' W 082°30'1212.0 250 / 121010.3 5.7 4.2
2014-Dec-17 04:00N 42°36' W 082°30'1110.7 290 / 121010.3 5.7 4.2
2014-Dec-17 03:00N 42°30' W 082°42'7 7.5 240 / 111010.1 6.5 4.1
2014-Dec-17 02:00N 42°24' W 082°48'1110.7 260 / 141010.1 7.2 3.2
2014-Dec-17 01:00N 42°18' W 083°00'7 7.5 240 / 111009.4 7.8 3.0
2014-Dec-17 00:00N 42°12' W 083°06'18 9.0 260 / 141009.1 7.3 2.8
2014-Dec-16 22:00N 41°54' W 083°06'9 8.9 240 / 141008.3 5.8 3.0
2014-Dec-16 21:00N 41°54' W 083°18'0 0.0 230 / 141007.6 5.7 3.0
2014-Dec-16 19:00N 41°54' W 083°18'0 0.0 240 / 21005.6 8.5 4.7
2014-Dec-16 18:00N 41°54' W 083°18'0 0.0 190 / 21005.6 8.3 4.6
2014-Dec-16 17:00N 41°54' W 083°18'65 3.8 180 / 21005.6 8.8 4.6
2014-Dec-16 00:00N 42°48' W 082°30'0 0.0 140 / 61014.0 6.1 8.5
2014-Dec-15 23:00N 42°48' W 082°30'0 0.0 170 / 61014.3 7.8 7.9
2014-Dec-15 22:00N 42°48' W 082°30'0 0.0 300 / 31014.7 8.3 8.0
2014-Dec-15 21:00N 42°48' W 082°30'0 0.0 240 / 91015.0 8.8 7.8
2014-Dec-15 20:00N 42°48' W 082°30'0 0.0 250 / 91015.0 9.1 7.6
2014-Dec-15 19:00N 42°48' W 082°30'0 0.0 240 / 101015.4 8.8 7.9
2014-Dec-15 18:00N 42°48' W 082°30'0 0.0 250 / 111016.4 8.1 7.5
2014-Dec-15 17:00N 42°48' W 082°30'0 0.0 200 / 71016.7 7.4 6.5
2014-Dec-15 16:00N 42°48' W 082°30'1312.8 140 / 51017.4 6.2 3.7
2014-Dec-15 15:00N 43°00' W 082°24'6 6.0 160 / 91017.4 6.7 3.8
2014-Dec-15 14:00N 43°06' W 082°24'1212.0 120 / 61017.4 5.3 3.4
2014-Dec-15 13:00N 43°18' W 082°24'1212.0 160 / 61017.1 4.6 3.9
2014-Dec-15 12:00N 43°30' W 082°24'1212.0 170 / 111016.7 4.3 4.0
2014-Dec-15 11:00N 43°42' W 082°24'1312.8 150 / 101016.7 4.6 5.0
2014-Dec-15 10:00N 43°54' W 082°30'1312.8 170 / 111016.4 4.7 5.3
2014-Dec-15 09:00N 44°06' W 082°36'1212.0 150 / 141016.7 4.7 5.4
2014-Dec-15 08:00N 44°18' W 082°36'1312.7 130 / 121017.1 4.8 5.3
2014-Dec-15 07:00N 44°30' W 082°42'3812.7 140 / 91017.1 4.7 5.1
2014-Dec-15 04:00N 45°06' W 083°00'1514.7 120 / 51017.7 4.0 4.5
2014-Dec-15 03:00N 45°18' W 083°12'1514.7 110 / 41017.7 3.9 4.7
2014-Dec-15 02:00N 45°30' W 083°24'7 7.3 040 / 31017.7 4.0 4.9
2014-Dec-15 01:00N 45°36' W 083°30'1514.6 130 / 41017.4 3.7 4.5
2014-Dec-15 00:00N 45°48' W 083°42'1115.0 120 / 21017.4 3.5 4.0
2014-Dec-14 23:15N 45°56' W 083°53'415.8
2014-Dec-14 23:00N 46°00' W 083°54'7 7.3 220 / 31017.1 2.6 0.9
2014-Dec-14 22:00N 46°06' W 084°00'811.8 140 / 31016.7 2.6 1.6
2014-Dec-14 21:16N 46°12' W 084°08'3 9.1
2014-Dec-14 21:00N 46°12' W 084°12'6 6.0 170 / 21016.4 3.2 2.5
2014-Dec-14 20:00N 46°18' W 084°12'6 6.0 210 / 21016.0 3.6 2.7
2014-Dec-14 19:00N 46°24' W 084°12'7 7.3 080 / 11016.0 3.0 2.7
2014-Dec-14 18:00N 46°30' W 084°18'4 4.1 050 / 21016.0 2.9 2.8
2014-Dec-14 17:00N 46°30' W 084°24'0 0.0 190 / 11016.6 2.8 2.8
2014-Dec-14 16:00N 46°30' W 084°24'4 4.1 220 / 61016.9 3.2 2.8
2014-Dec-14 15:00N 46°30' W 084°30'1010.2 240 / 81016.9 2.1 3.2
2014-Dec-14 14:00N 46°36' W 084°42'910.8 260 / 101015.9 2.8 3.7
2014-Dec-14 13:10N 46°43' W 084°51'213.3
2014-Dec-14 13:00N 46°42' W 084°54'1514.5 240 / 91015.2 1.9 2.9
2014-Dec-14 12:00N 46°54' W 085°06'812.2 240 / 51015.2 2.8 3.6
2014-Dec-14 11:20N 46°56' W 085°17'617.6
2014-Dec-14 11:00N 47°00' W 085°24'8 8.2 270 / 81015.2 3.8 4.5
2014-Dec-14 10:00N 47°00' W 085°36'12612.6 270 / 101014.9 3.8 4.7
2014-Dec-14 00:00N 47°30' W 088°36'149 6.2 250 / 211013.9 4.7 4.6
2014-Dec-13 00:00N 46°48' W 092°06'0 0.0 210 / 81019.0 0.9 0.5
2014-Dec-12 22:00N 46°48' W 092°06'8 8.2 220 / 71020.0 0.9 1.1
2014-Dec-12 21:00N 46°48' W 091°54'1413.7 210 / 141019.3 1.2 3.3
2014-Dec-12 20:00N 46°54' W 091°36'1413.7 210 / 141019.3 1.0 4.0
2014-Dec-12 19:00N 47°00' W 091°18'1212.3 210 / 141019.6 0.8 3.7
2014-Dec-12 18:00N 47°00' W 091°00'1413.7 220 / 141019.6 0.3 3.6
2014-Dec-12 17:00N 47°06' W 090°42'10812.1 230 / 141020.3 0.1 3.1
2014-Dec-12 08:00N 47°30' W 088°06'1212.2 260 / 221019.0 0.8 4.5
2014-Dec-12 07:00N 47°30' W 087°48'12612.6 280 / 201019.6 1.2 3.4
2014-Dec-11 21:00N 46°48' W 084°54'2412.2 290 / 191017.6 1.4 3.3
2014-Dec-11 19:00N 46°30' W 084°30'3 5.0 340 / 181016.9 1.2 2.7
2014-Dec-11 18:29N 46°29' W 084°27'2 4.1
2014-Dec-11 18:00N 46°30' W 084°24'4 4.1 300 / 151017.6 0.5 1.9
2014-Dec-11 17:00N 46°30' W 084°18'0 0.0 300 / 111018.1 -0.6 2.2
2014-Dec-11 16:00N 46°30' W 084°18'7 7.3 310 / 161017.4 -1.4 2.1
2014-Dec-11 15:00N 46°24' W 084°12'4 6.6 310 / 51018.8 -5.9 1.8
2014-Dec-11 14:24N 46°20' W 084°11'9 6.3
2014-Dec-11 13:00N 46°12' W 084°06'814.0 340 / 41019.4 -6.7 0.9
2014-Dec-11 12:27N 46°05' W 084°01'715.6
2014-Dec-11 12:00N 46°00' W 083°54'2 4.8 330 / 101018.8 -6.1 0.8
2014-Dec-11 11:33N 45°58' W 083°53'5 9.7
2014-Dec-11 11:00N 45°54' W 083°48'1013.9 310 / 141018.4 -4.5 3.9
2014-Dec-11 10:16N 45°45' W 083°43'811.1
2014-Dec-11 09:33N 45°38' W 083°37'5 9.0
2014-Dec-11 09:00N 45°36' W 083°30'716.1 350 / 161018.4 -2.3 4.6
2014-Dec-11 08:33N 45°29' W 083°28'13 8.4
2014-Dec-11 07:00N 45°18' W 083°18'1514.7 340 / 191017.4 -1.8 4.2
2014-Dec-11 06:00N 45°06' W 083°06'6 6.0 330 / 231017.4 -1.6 3.8
2014-Dec-11 05:00N 45°00' W 083°06'25 8.5 340 / 231018.1 -1.5 4.5
2014-Dec-11 02:00N 44°36' W 082°54'2010.0 350 / 231019.4 -0.1 5.2
2014-Dec-11 00:00N 44°18' W 082°42'6 6.0 340 / 241020.4 -0.8 5.6
2014-Dec-10 23:00N 44°12' W 082°42'1312.8 340 / 221020.410.8 2.0-0.6 5.5
2014-Dec-10 22:00N 44°00' W 082°36'7 7.4 340 / 201021.1 -1.1 4.5
2014-Dec-10 21:00N 43°54' W 082°30'1212.0 1020.8 -1.3 4.1
2014-Dec-10 20:00N 43°42' W 082°30'48 9.6 340 / 211020.8 -1.5 3.8
2014-Dec-10 15:00N 42°54' W 082°30'6 6.0 020 / 131024.2 -2.2 4.2
2014-Dec-10 14:00N 42°48' W 082°30'1212.0 320 / 151023.8 -2.2 4.1
2014-Dec-10 13:00N 42°36' W 082°30'29 9.5 340 / 161023.8 -1.9 4.0
2014-Dec-10 10:00N 42°18' W 083°00'7 7.5 320 / 191024.0 -0.9 3.2
2014-Dec-10 09:00N 42°12' W 083°06'6 6.0 330 / 141023.6 -0.1 3.3
2014-Dec-10 08:00N 42°06' W 083°06'13 6.4 350 / 121023.5 0.1 3.0
2014-Dec-10 06:00N 41°54' W 083°12'4 1.5 010 / 161023.5 1.1 2.8
2014-Dec-10 03:00N 41°54' W 083°18'0 0.0 030 / 71023.5 2.4 2.3
2014-Dec-10 02:00N 41°54' W 083°18'0 0.0 040 / 61023.2 2.5 2.4
2014-Dec-10 00:00N 41°54' W 083°18'0 0.0 020 / 71022.9 2.8 2.5
2014-Dec-09 22:00N 41°54' W 083°18'0 0.0 050 / 61022.5 3.4 2.6
2014-Dec-09 21:00N 41°54' W 083°18'0 0.0 020 / 71022.2 3.6 2.7
2014-Dec-09 20:00N 41°54' W 083°18'0 0.0 040 / 91021.2 3.8 2.6
2014-Dec-09 18:00N 41°54' W 083°18'4 4.5 340 / 101020.5 3.2 1.8
2014-Dec-09 17:00N 41°54' W 083°12'7 7.5 320 / 121020.5 2.8 2.2
2014-Dec-09 16:00N 42°00' W 083°06'1212.0 330 / 81021.2 3.2 3.1
2014-Dec-09 15:00N 42°12' W 083°06'6 6.0 350 / 81020.9 3.3 3.2
2014-Dec-09 14:00N 42°18' W 083°06'1110.7 360 / 101020.3 2.8 3.0
2014-Dec-09 13:00N 42°24' W 082°54'1110.7 340 / 91019.2 2.7 3.2
2014-Dec-09 12:00N 42°30' W 082°42'1110.7 350 / 111018.9 3.0 4.0
2014-Dec-09 11:00N 42°36' W 082°30'1212.0 190 / 31019.1 2.7 3.9
2014-Dec-09 10:00N 42°48' W 082°30'0 0.0 160 / 51018.8 2.9 5.3
2014-Dec-09 09:00N 42°48' W 082°30'0 0.0 240 / 41018.8 4.6 6.9
2014-Dec-09 07:00N 42°48' W 082°30'0 0.0 190 / 21018.8 4.0 6.9
2014-Dec-09 06:00N 42°48' W 082°30'0 0.0 230 / 61018.8 4.4 6.9
2014-Dec-09 05:00N 42°48' W 082°30'0 0.0 230 / 91018.8 4.2 7.2
2014-Dec-09 03:00N 42°48' W 082°30'0 0.0 250 / 41018.8 3.8 7.3
2014-Dec-09 02:00N 42°48' W 082°30'13 6.4 160 / 51018.8 3.9 4.0
2014-Dec-09 00:00N 43°00' W 082°24'1212.0 170 / 81018.4 4.1 3.8
2014-Dec-08 23:00N 43°12' W 082°24'6 6.0 150 / 151018.4 4.3 4.8
2014-Dec-08 22:00N 43°18' W 082°24'2412.0 150 / 141018.4 5.1 5.1
2014-Dec-08 20:00N 43°42' W 082°24'1312.8 170 / 201017.7 4.8 5.0
2014-Dec-08 19:00N 43°54' W 082°30'1212.0 170 / 201018.1 4.4 5.6
2014-Dec-08 18:00N 44°06' W 082°30'1312.7 160 / 221018.8 3.8 5.7
2014-Dec-08 17:00N 44°18' W 082°36'7 7.4 160 / 261019.1 3.4 5.6
2014-Dec-08 16:00N 44°24' W 082°42'5110.2 170 / 231020.1 3.4 5.6
2014-Dec-08 11:00N 45°12' W 083°06'1514.7 170 / 251022.5 2.5 5.2
2014-Dec-08 10:00N 45°24' W 083°18'1010.3 180 / 281022.5 1.9 4.8
2014-Dec-08 09:00N 45°30' W 083°30'1012.6 170 / 261023.8 1.2 4.8
2014-Dec-08 08:10N 45°39' W 083°36'1211.3
2014-Dec-08 07:08N 45°49' W 083°46'211.8
2014-Dec-08 07:00N 45°48' W 083°48'   150 / 231024.8 1.6 4.2

Dump ship's entire track history